PWSweather.com
Personal Weather Stations
Station Observations
KORLAKEV9
Lakeview, OR 97630

Lakeview, OR 97630

Lat: 42.1961633, Lon: -120.3477325

Elevation: 4800

Station Type: Oregon Scientific WMR968

http://agrisea.net/weather/

Latest ConditionsUpdated 11:20:08 AM PDT Tuesday, Apr 24, 2018
Currently Today's Max Today's Min Today's Average
Temperature 62.4°F16.9°C 65.3°F18.5°C 44.6°F7.0°C 49.8°F9.9°C
Dew Point 19.6°F-6.9°C 20.7°F-6.3°C 8.1°F-13.3°C 11.7°F-11.3°C
Winds 8.1 mph E13.0 kmh E 16.6 mph NE26.7 kmh NE - 8.0 mph 12.9 kmh
Wind Gusts 20.1 mph32.3 kmh 23.7 mph38.1 kmh - -
Humidity 19% 24% 18% 21%
Pressure 30.24 in1024.0 mb 30.24 in1024.0 mb 30.21 in1023.0 mb -
Hour Temp Dew Point Humidity Winds Wind Gusts Pressure Precip Precip Rate Daily Precip Total
11:20 AM 62.4°F16.9°C 19.6°F-6.9°C 19% 8.1 mph E13.0 kmh E 20.1 mph32.3 kmh 30.24 in1024.0 mb 0.00 in0.0 mm 0.00 in0.0 mm 0.00 in0.0 mm
11:15 AM 63.9°F17.7°C 19.6°F-6.9°C 18% 5.4 mph ENE8.7 kmh ENE 13.4 mph21.6 kmh 30.24 in1024.0 mb 0.00 in0.0 mm 0.00 in0.0 mm 0.00 in0.0 mm
11:10 AM 65.3°F18.5°C 20.7°F-6.3°C 18% Calm Calm 10.7 mph17.2 kmh 30.24 in1024.0 mb 0.00 in0.0 mm 0.00 in0.0 mm 0.00 in0.0 mm
11:05 AM 64.2°F17.9°C 19.9°F-6.7°C 18% Calm Calm 11.6 mph18.7 kmh 30.24 in1024.0 mb 0.00 in0.0 mm 0.00 in0.0 mm 0.00 in0.0 mm
11:01 AM 63.3°F17.4°C 19.1°F-7.2°C 18% 5.4 mph E8.7 kmh E 12.5 mph20.1 kmh 30.24 in1024.0 mb 0.00 in0.0 mm 0.00 in0.0 mm 0.00 in0.0 mm
10:55 AM 62.2°F16.8°C 19.5°F-6.9°C 19% 11.6 mph N18.7 kmh N 12.5 mph20.1 kmh 30.24 in1024.0 mb 0.00 in0.0 mm 0.00 in0.0 mm 0.00 in0.0 mm
10:50 AM 64.0°F17.8°C 19.7°F-6.8°C 18% 8.1 mph NE13.0 kmh NE 14.3 mph23.0 kmh 30.24 in1024.0 mb 0.00 in0.0 mm 0.00 in0.0 mm 0.00 in0.0 mm
10:45 AM 64.6°F18.1°C 20.2°F-6.6°C 18% 8.1 mph ENE13.0 kmh ENE 14.3 mph23.0 kmh 30.24 in1024.0 mb 0.00 in0.0 mm 0.00 in0.0 mm 0.00 in0.0 mm
10:40 AM 64.2°F17.9°C 19.9°F-6.7°C 18% Calm Calm 12.5 mph20.1 kmh 30.24 in1024.0 mb 0.00 in0.0 mm 0.00 in0.0 mm 0.00 in0.0 mm
10:35 AM 63.9°F17.7°C 19.6°F-6.9°C 18% 6.3 mph NNW10.1 kmh NNW 11.6 mph18.7 kmh 30.24 in1024.0 mb 0.00 in0.0 mm 0.00 in0.0 mm 0.00 in0.0 mm
10:30 AM 62.8°F17.1°C 18.7°F-7.4°C 18% 7.2 mph N11.6 kmh N 15.2 mph24.5 kmh 30.24 in1024.0 mb 0.00 in0.0 mm 0.00 in0.0 mm 0.00 in0.0 mm
10:25 AM 61.3°F16.3°C 18.8°F-7.3°C 19% Calm Calm 16.6 mph26.7 kmh 30.24 in1024.0 mb 0.00 in0.0 mm 0.00 in0.0 mm 0.00 in0.0 mm
10:20 AM 61.0°F16.1°C 18.5°F-7.5°C 19% 12.5 mph N20.1 kmh N 16.6 mph26.7 kmh 30.24 in1024.0 mb 0.00 in0.0 mm 0.00 in0.0 mm 0.00 in0.0 mm
10:15 AM 60.4°F15.8°C 18.0°F-7.8°C 19% 8.9 mph N14.3 kmh N 16.6 mph26.7 kmh 30.24 in1024.0 mb 0.00 in0.0 mm 0.00 in0.0 mm 0.00 in0.0 mm
10:10 AM 59.9°F15.5°C 17.6°F-8.0°C 19% 5.4 mph ENE8.7 kmh ENE 16.6 mph26.7 kmh 30.24 in1024.0 mb 0.00 in0.0 mm 0.00 in0.0 mm 0.00 in0.0 mm
10:05 AM 59.2°F15.1°C 17.0°F-8.3°C 19% 16.1 mph SE25.9 kmh SE 16.6 mph26.7 kmh 30.24 in1024.0 mb 0.00 in0.0 mm 0.00 in0.0 mm 0.00 in0.0 mm
10:02 AM 58.6°F14.8°C 16.5°F-8.6°C 19% 8.1 mph NE13.0 kmh NE 16.1 mph25.9 kmh 30.24 in1024.0 mb 0.00 in0.0 mm 0.00 in0.0 mm 0.00 in0.0 mm
09:55 AM 57.9°F14.4°C 15.9°F-8.9°C 19% 8.1 mph ENE13.0 kmh ENE 17.4 mph28.0 kmh 30.24 in1024.0 mb 0.00 in0.0 mm 0.00 in0.0 mm 0.00 in0.0 mm
09:50 AM 57.0°F13.9°C 16.4°F-8.7°C 20% 5.4 mph E8.7 kmh E 17.4 mph28.0 kmh 30.24 in1024.0 mb 0.00 in0.0 mm 0.00 in0.0 mm 0.00 in0.0 mm
09:45 AM 56.8°F13.8°C 16.2°F-8.8°C 20% 8.1 mph NNW13.0 kmh NNW 12.5 mph20.1 kmh 30.24 in1024.0 mb 0.00 in0.0 mm 0.00 in0.0 mm 0.00 in0.0 mm
09:40 AM 56.3°F13.5°C 18.0°F-7.8°C 22% 8.9 mph ENE14.3 kmh ENE 17.4 mph28.0 kmh 30.24 in1024.0 mb 0.00 in0.0 mm 0.00 in0.0 mm 0.00 in0.0 mm
09:35 AM 54.7°F12.6°C 17.6°F-8.0°C 23% 7.2 mph N11.6 kmh N 17.4 mph28.0 kmh 30.24 in1024.0 mb 0.00 in0.0 mm 0.00 in0.0 mm 0.00 in0.0 mm
09:30 AM 54.1°F12.3°C 17.2°F-8.2°C 23% 7.2 mph N11.6 kmh N 16.6 mph26.7 kmh 30.24 in1024.0 mb 0.00 in0.0 mm 0.00 in0.0 mm 0.00 in0.0 mm
09:25 AM 53.8°F12.1°C 16.9°F-8.4°C 23% 8.1 mph NNE13.0 kmh NNE 16.6 mph26.7 kmh 30.24 in1024.0 mb 0.00 in0.0 mm 0.00 in0.0 mm 0.00 in0.0 mm
09:20 AM 53.2°F11.8°C 16.4°F-8.7°C 23% 10.7 mph NNE17.2 kmh NNE 16.6 mph26.7 kmh 30.24 in1024.0 mb 0.00 in0.0 mm 0.00 in0.0 mm 0.00 in0.0 mm
09:15 AM 52.7°F11.5°C 16.0°F-8.9°C 23% 8.1 mph N13.0 kmh N 16.6 mph26.7 kmh 30.24 in1024.0 mb 0.00 in0.0 mm 0.00 in0.0 mm 0.00 in0.0 mm
09:10 AM 51.8°F11.0°C 15.2°F-9.3°C 23% 8.1 mph NNE13.0 kmh NNE 19.2 mph30.9 kmh 30.24 in1024.0 mb 0.00 in0.0 mm 0.00 in0.0 mm 0.00 in0.0 mm
09:05 AM 50.7°F10.4°C 15.3°F-9.3°C 24% 16.6 mph NE26.7 kmh NE 19.2 mph30.9 kmh 30.24 in1024.0 mb 0.00 in0.0 mm 0.00 in0.0 mm 0.00 in0.0 mm
09:01 AM 50.2°F10.1°C 14.8°F-9.6°C 24% 5.4 mph NNE8.7 kmh NNE 19.2 mph30.9 kmh 30.24 in1024.0 mb 0.00 in0.0 mm 0.00 in0.0 mm 0.00 in0.0 mm
08:55 AM 49.5°F9.7°C 14.2°F-9.9°C 24% 6.3 mph NE10.1 kmh NE 16.6 mph26.7 kmh 30.24 in1024.0 mb 0.00 in0.0 mm 0.00 in0.0 mm 0.00 in0.0 mm
08:50 AM 48.9°F9.4°C 13.7°F-10.2°C 24% 6.3 mph NNE10.1 kmh NNE 16.1 mph25.9 kmh 30.24 in1024.0 mb 0.00 in0.0 mm 0.00 in0.0 mm 0.00 in0.0 mm
08:45 AM 48.6°F9.2°C 13.4°F-10.3°C 24% 9.8 mph N15.8 kmh N 19.2 mph30.9 kmh 30.24 in1024.0 mb 0.00 in0.0 mm 0.00 in0.0 mm 0.00 in0.0 mm
08:38 AM 48.0°F8.9°C 13.0°F-10.6°C 24% 11.6 mph N18.7 kmh N 19.2 mph30.9 kmh 30.24 in1024.0 mb 0.00 in0.0 mm 0.00 in0.0 mm 0.00 in0.0 mm
08:30 AM 47.7°F8.7°C 10.7°F-11.8°C 22% 8.1 mph NNE13.0 kmh NNE 20.1 mph32.3 kmh 30.24 in1024.0 mb 0.00 in0.0 mm 0.00 in0.0 mm 0.00 in0.0 mm
08:25 AM 47.5°F8.6°C 10.6°F-11.9°C 22% 8.1 mph NNE13.0 kmh NNE 21.0 mph33.8 kmh 30.24 in1024.0 mb 0.00 in0.0 mm 0.00 in0.0 mm 0.00 in0.0 mm
08:20 AM 47.3°F8.5°C 10.4°F-12.0°C 22% 7.2 mph N11.6 kmh N 21.0 mph33.8 kmh 30.24 in1024.0 mb 0.00 in0.0 mm 0.00 in0.0 mm 0.00 in0.0 mm
08:15 AM 47.1°F8.4°C 10.2°F-12.1°C 22% 9.8 mph NNE15.8 kmh NNE 19.2 mph30.9 kmh 30.24 in1024.0 mb 0.00 in0.0 mm 0.00 in0.0 mm 0.00 in0.0 mm
08:10 AM 47.1°F8.4°C 10.2°F-12.1°C 22% 7.2 mph NNE11.6 kmh NNE 23.7 mph38.1 kmh 30.24 in1024.0 mb 0.00 in0.0 mm 0.00 in0.0 mm 0.00 in0.0 mm
08:05 AM 46.9°F8.3°C 10.1°F-12.2°C 22% 10.7 mph NNE17.2 kmh NNE 23.7 mph38.1 kmh 30.24 in1024.0 mb 0.00 in0.0 mm 0.00 in0.0 mm 0.00 in0.0 mm
08:01 AM 46.9°F8.3°C 10.1°F-12.2°C 22% 9.8 mph NE15.8 kmh NE 17.4 mph28.0 kmh 30.24 in1024.0 mb 0.00 in0.0 mm 0.00 in0.0 mm 0.00 in0.0 mm
07:55 AM 46.8°F8.2°C 9.9°F-12.3°C 22% 11.6 mph NE18.7 kmh NE 17.4 mph28.0 kmh 30.24 in1024.0 mb 0.00 in0.0 mm 0.00 in0.0 mm 0.00 in0.0 mm
07:50 AM 46.6°F8.1°C 9.8°F-12.3°C 22% 11.6 mph NNE18.7 kmh NNE 16.1 mph25.9 kmh 30.24 in1024.0 mb 0.00 in0.0 mm 0.00 in0.0 mm 0.00 in0.0 mm
07:45 AM 46.2°F7.9°C 9.5°F-12.5°C 22% 10.7 mph N17.2 kmh N 16.1 mph25.9 kmh 30.24 in1024.0 mb 0.00 in0.0 mm 0.00 in0.0 mm 0.00 in0.0 mm
07:40 AM 45.9°F7.7°C 9.2°F-12.7°C 22% 12.5 mph N20.1 kmh N 15.2 mph24.5 kmh 30.24 in1024.0 mb 0.00 in0.0 mm 0.00 in0.0 mm 0.00 in0.0 mm
07:35 AM 45.7°F7.6°C 9.0°F-12.8°C 22% 7.2 mph NNE11.6 kmh NNE 16.6 mph26.7 kmh 30.24 in1024.0 mb 0.00 in0.0 mm 0.00 in0.0 mm 0.00 in0.0 mm
07:30 AM 45.5°F7.5°C 8.9°F-12.8°C 22% 6.3 mph NNE10.1 kmh NNE 16.6 mph26.7 kmh 30.24 in1024.0 mb 0.00 in0.0 mm 0.00 in0.0 mm 0.00 in0.0 mm
07:25 AM 45.1°F7.3°C 8.6°F-13.0°C 22% 6.3 mph ESE10.1 kmh ESE 15.2 mph24.5 kmh 30.24 in1024.0 mb 0.00 in0.0 mm 0.00 in0.0 mm 0.00 in0.0 mm
07:20 AM 44.6°F7.0°C 8.1°F-13.3°C 22% 4.5 mph NNE7.2 kmh NNE 16.6 mph26.7 kmh 30.24 in1024.0 mb 0.00 in0.0 mm 0.00 in0.0 mm 0.00 in0.0 mm
07:15 AM 44.6°F7.0°C 8.1°F-13.3°C 22% 15.2 mph NNE24.5 kmh NNE 16.6 mph26.7 kmh 30.24 in1024.0 mb 0.00 in0.0 mm 0.00 in0.0 mm 0.00 in0.0 mm
07:10 AM 44.6°F7.0°C 8.1°F-13.3°C 22% 12.5 mph NE20.1 kmh NE 16.6 mph26.7 kmh 30.24 in1024.0 mb 0.00 in0.0 mm 0.00 in0.0 mm 0.00 in0.0 mm
07:05 AM 44.8°F7.1°C 8.3°F-13.2°C 22% 11.6 mph NE18.7 kmh NE 16.6 mph26.7 kmh 30.24 in1024.0 mb 0.00 in0.0 mm 0.00 in0.0 mm 0.00 in0.0 mm
07:01 AM 44.8°F7.1°C 8.3°F-13.2°C 22% 8.1 mph NNE13.0 kmh NNE 16.6 mph26.7 kmh 30.24 in1024.0 mb 0.00 in0.0 mm 0.00 in0.0 mm 0.00 in0.0 mm
06:55 AM 44.8°F7.1°C 8.3°F-13.2°C 22% 9.8 mph NNE15.8 kmh NNE 16.6 mph26.7 kmh 30.24 in1024.0 mb 0.00 in0.0 mm 0.00 in0.0 mm 0.00 in0.0 mm
06:50 AM 44.6°F7.0°C 8.1°F-13.3°C 22% 7.2 mph NNE11.6 kmh NNE 17.4 mph28.0 kmh 30.24 in1024.0 mb 0.00 in0.0 mm 0.00 in0.0 mm 0.00 in0.0 mm
06:43 AM 44.6°F7.0°C 8.1°F-13.3°C 22% 9.8 mph NNE15.8 kmh NNE 17.4 mph28.0 kmh 30.24 in1024.0 mb 0.00 in0.0 mm 0.00 in0.0 mm 0.00 in0.0 mm
06:35 AM 44.6°F7.0°C 8.1°F-13.3°C 22% 6.3 mph NNE10.1 kmh NNE 16.1 mph25.9 kmh 30.24 in1024.0 mb 0.00 in0.0 mm 0.00 in0.0 mm 0.00 in0.0 mm
06:30 AM 44.8°F7.1°C 8.3°F-13.2°C 22% 4.5 mph NE7.2 kmh NE 16.1 mph25.9 kmh 30.24 in1024.0 mb 0.00 in0.0 mm 0.00 in0.0 mm 0.00 in0.0 mm
06:25 AM 44.8°F7.1°C 8.3°F-13.2°C 22% 9.8 mph ENE15.8 kmh ENE 15.2 mph24.5 kmh 30.24 in1024.0 mb 0.00 in0.0 mm 0.00 in0.0 mm 0.00 in0.0 mm
06:20 AM 44.6°F7.0°C 8.1°F-13.3°C 22% 8.1 mph NNE13.0 kmh NNE 15.2 mph24.5 kmh 30.24 in1024.0 mb 0.00 in0.0 mm 0.00 in0.0 mm 0.00 in0.0 mm
06:15 AM 44.6°F7.0°C 8.1°F-13.3°C 22% 7.2 mph NNE11.6 kmh NNE 16.1 mph25.9 kmh 30.24 in1024.0 mb 0.00 in0.0 mm 0.00 in0.0 mm 0.00 in0.0 mm
06:10 AM 44.8°F7.1°C 8.3°F-13.2°C 22% 8.1 mph NNE13.0 kmh NNE 16.1 mph25.9 kmh 30.24 in1024.0 mb 0.00 in0.0 mm 0.00 in0.0 mm 0.00 in0.0 mm
06:05 AM 44.8°F7.1°C 8.3°F-13.2°C 22% 7.2 mph NNE11.6 kmh NNE 15.2 mph24.5 kmh 30.24 in1024.0 mb 0.00 in0.0 mm 0.00 in0.0 mm 0.00 in0.0 mm
06:01 AM 45.0°F7.2°C 8.4°F-13.1°C 22% 11.6 mph NNE18.7 kmh NNE 16.6 mph26.7 kmh 30.24 in1024.0 mb 0.00 in0.0 mm 0.00 in0.0 mm 0.00 in0.0 mm
05:55 AM 45.3°F7.4°C 8.7°F-12.9°C 22% 6.3 mph NE10.1 kmh NE 16.6 mph26.7 kmh 30.24 in1024.0 mb 0.00 in0.0 mm 0.00 in0.0 mm 0.00 in0.0 mm
05:50 AM 45.5°F7.5°C 8.9°F-12.8°C 22% 5.4 mph NNE8.7 kmh NNE 12.5 mph20.1 kmh 30.24 in1024.0 mb 0.00 in0.0 mm 0.00 in0.0 mm 0.00 in0.0 mm
05:43 AM 45.7°F7.6°C 9.0°F-12.8°C 22% 6.3 mph NE10.1 kmh NE 15.2 mph24.5 kmh 30.24 in1024.0 mb 0.00 in0.0 mm 0.00 in0.0 mm 0.00 in0.0 mm
05:35 AM 45.9°F7.7°C 9.2°F-12.7°C 22% 7.2 mph NNE11.6 kmh NNE 21.0 mph33.8 kmh 30.21 in1023.0 mb 0.00 in0.0 mm 0.00 in0.0 mm 0.00 in0.0 mm
05:30 AM 45.9°F7.7°C 9.2°F-12.7°C 22% 8.1 mph N13.0 kmh N 12.5 mph20.1 kmh 30.21 in1023.0 mb 0.00 in0.0 mm 0.00 in0.0 mm 0.00 in0.0 mm
05:25 AM 46.0°F7.8°C 9.3°F-12.6°C 22% 8.1 mph N13.0 kmh N 12.5 mph20.1 kmh 30.21 in1023.0 mb 0.00 in0.0 mm 0.00 in0.0 mm 0.00 in0.0 mm
05:20 AM 46.0°F7.8°C 9.3°F-12.6°C 22% 8.1 mph NE13.0 kmh NE 16.1 mph25.9 kmh 30.21 in1023.0 mb 0.00 in0.0 mm 0.00 in0.0 mm 0.00 in0.0 mm
05:15 AM 46.0°F7.8°C 9.3°F-12.6°C 22% 6.3 mph NNE10.1 kmh NNE 16.1 mph25.9 kmh 30.21 in1023.0 mb 0.00 in0.0 mm 0.00 in0.0 mm 0.00 in0.0 mm
05:10 AM 46.0°F7.8°C 9.3°F-12.6°C 22% 8.1 mph N13.0 kmh N 16.1 mph25.9 kmh 30.21 in1023.0 mb 0.00 in0.0 mm 0.00 in0.0 mm 0.00 in0.0 mm
05:05 AM 46.0°F7.8°C 9.3°F-12.6°C 22% 7.2 mph NNE11.6 kmh NNE 16.1 mph25.9 kmh 30.21 in1023.0 mb 0.00 in0.0 mm 0.00 in0.0 mm 0.00 in0.0 mm
05:01 AM 46.0°F7.8°C 9.3°F-12.6°C 22% 12.5 mph NNE20.1 kmh NNE 16.1 mph25.9 kmh 30.21 in1023.0 mb 0.00 in0.0 mm 0.00 in0.0 mm 0.00 in0.0 mm
04:55 AM 46.0°F7.8°C 9.3°F-12.6°C 22% 6.3 mph NNE10.1 kmh NNE 12.5 mph20.1 kmh 30.21 in1023.0 mb 0.00 in0.0 mm 0.00 in0.0 mm 0.00 in0.0 mm
04:50 AM 46.2°F7.9°C 9.5°F-12.5°C 22% 6.3 mph N10.1 kmh N 16.1 mph25.9 kmh 30.21 in1023.0 mb 0.00 in0.0 mm 0.00 in0.0 mm 0.00 in0.0 mm
04:45 AM 46.4°F8.0°C 9.6°F-12.4°C 22% 8.1 mph N13.0 kmh N 16.1 mph25.9 kmh 30.21 in1023.0 mb 0.00 in0.0 mm 0.00 in0.0 mm 0.00 in0.0 mm
04:40 AM 46.4°F8.0°C 9.6°F-12.4°C 22% 10.7 mph NNE17.2 kmh NNE 12.5 mph20.1 kmh 30.21 in1023.0 mb 0.00 in0.0 mm 0.00 in0.0 mm 0.00 in0.0 mm
04:35 AM 46.4°F8.0°C 9.6°F-12.4°C 22% 6.3 mph NNE10.1 kmh NNE 12.5 mph20.1 kmh 30.21 in1023.0 mb 0.00 in0.0 mm 0.00 in0.0 mm 0.00 in0.0 mm
04:30 AM 46.8°F8.2°C 9.9°F-12.3°C 22% 8.1 mph NE13.0 kmh NE 12.5 mph20.1 kmh 30.21 in1023.0 mb 0.00 in0.0 mm 0.00 in0.0 mm 0.00 in0.0 mm
04:25 AM 46.9°F8.3°C 10.1°F-12.2°C 22% 10.7 mph NE17.2 kmh NE 12.5 mph20.1 kmh 30.21 in1023.0 mb 0.00 in0.0 mm 0.00 in0.0 mm 0.00 in0.0 mm
04:20 AM 46.9°F8.3°C 10.1°F-12.2°C 22% 6.3 mph N10.1 kmh N 14.3 mph23.0 kmh 30.21 in1023.0 mb 0.00 in0.0 mm 0.00 in0.0 mm 0.00 in0.0 mm
04:15 AM 46.9°F8.3°C 10.1°F-12.2°C 22% 6.3 mph NNE10.1 kmh NNE 14.3 mph23.0 kmh 30.21 in1023.0 mb 0.00 in0.0 mm 0.00 in0.0 mm 0.00 in0.0 mm
04:10 AM 47.1°F8.4°C 10.2°F-12.1°C 22% 7.2 mph NE11.6 kmh NE 11.6 mph18.7 kmh 30.21 in1023.0 mb 0.00 in0.0 mm 0.00 in0.0 mm 0.00 in0.0 mm
04:05 AM 47.1°F8.4°C 10.2°F-12.1°C 22% 5.4 mph NNE8.7 kmh NNE 11.6 mph18.7 kmh 30.21 in1023.0 mb 0.00 in0.0 mm 0.00 in0.0 mm 0.00 in0.0 mm
04:01 AM 47.1°F8.4°C 10.2°F-12.1°C 22% 5.4 mph NNE8.7 kmh NNE 14.3 mph23.0 kmh 30.21 in1023.0 mb 0.00 in0.0 mm 0.00 in0.0 mm 0.00 in0.0 mm
03:58 AM 47.1°F8.4°C 10.2°F-12.1°C 22% 9.8 mph NNE15.8 kmh NNE 14.3 mph23.0 kmh 30.21 in1023.0 mb 0.00 in0.0 mm 0.00 in0.0 mm 0.00 in0.0 mm
03:50 AM 47.3°F8.5°C 10.4°F-12.0°C 22% 7.2 mph NNE11.6 kmh NNE 12.5 mph20.1 kmh 30.21 in1023.0 mb 0.00 in0.0 mm 0.00 in0.0 mm 0.00 in0.0 mm
03:45 AM 47.3°F8.5°C 10.4°F-12.0°C 22% 6.3 mph NNE10.1 kmh NNE 16.6 mph26.7 kmh 30.21 in1023.0 mb 0.00 in0.0 mm 0.00 in0.0 mm 0.00 in0.0 mm
03:40 AM 47.5°F8.6°C 10.6°F-11.9°C 22% 6.3 mph NE10.1 kmh NE 16.6 mph26.7 kmh 30.21 in1023.0 mb 0.00 in0.0 mm 0.00 in0.0 mm 0.00 in0.0 mm
03:35 AM 47.5°F8.6°C 10.6°F-11.9°C 22% 6.3 mph NE10.1 kmh NE 16.6 mph26.7 kmh 30.21 in1023.0 mb 0.00 in0.0 mm 0.00 in0.0 mm 0.00 in0.0 mm
03:30 AM 47.7°F8.7°C 10.7°F-11.8°C 22% 11.6 mph NE18.7 kmh NE 12.5 mph20.1 kmh 30.21 in1023.0 mb 0.00 in0.0 mm 0.00 in0.0 mm 0.00 in0.0 mm
03:25 AM 47.8°F8.8°C 10.9°F-11.7°C 22% 11.6 mph N18.7 kmh N 12.5 mph20.1 kmh 30.21 in1023.0 mb 0.00 in0.0 mm 0.00 in0.0 mm 0.00 in0.0 mm
03:20 AM 48.0°F8.9°C 11.0°F-11.7°C 22% 6.3 mph NE10.1 kmh NE 12.5 mph20.1 kmh 30.21 in1023.0 mb 0.00 in0.0 mm 0.00 in0.0 mm 0.00 in0.0 mm
03:15 AM 48.0°F8.9°C 11.0°F-11.7°C 22% 7.2 mph NNE11.6 kmh NNE 15.2 mph24.5 kmh 30.21 in1023.0 mb 0.00 in0.0 mm 0.00 in0.0 mm 0.00 in0.0 mm
03:10 AM 48.2°F9.0°C 10.1°F-12.2°C 21% 9.8 mph NNE15.8 kmh NNE 15.2 mph24.5 kmh 30.21 in1023.0 mb 0.00 in0.0 mm 0.00 in0.0 mm 0.00 in0.0 mm
03:05 AM 48.2°F9.0°C 10.1°F-12.2°C 21% 8.1 mph N13.0 kmh N 12.5 mph20.1 kmh 30.21 in1023.0 mb 0.00 in0.0 mm 0.00 in0.0 mm 0.00 in0.0 mm
03:01 AM 48.2°F9.0°C 10.1°F-12.2°C 21% 9.8 mph NNE15.8 kmh NNE 12.5 mph20.1 kmh 30.21 in1023.0 mb 0.00 in0.0 mm 0.00 in0.0 mm 0.00 in0.0 mm
02:55 AM 48.4°F9.1°C 10.3°F-12.1°C 21% 10.7 mph NE17.2 kmh NE 12.5 mph20.1 kmh 30.21 in1023.0 mb 0.00 in0.0 mm 0.00 in0.0 mm 0.00 in0.0 mm
02:50 AM 48.4°F9.1°C 10.3°F-12.1°C 21% 8.1 mph NE13.0 kmh NE 12.5 mph20.1 kmh 30.21 in1023.0 mb 0.00 in0.0 mm 0.00 in0.0 mm 0.00 in0.0 mm
02:45 AM 48.4°F9.1°C 10.3°F-12.1°C 21% 11.6 mph NNE18.7 kmh NNE 17.4 mph28.0 kmh 30.21 in1023.0 mb 0.00 in0.0 mm 0.00 in0.0 mm 0.00 in0.0 mm
02:40 AM 48.4°F9.1°C 10.3°F-12.1°C 21% 12.5 mph N20.1 kmh N 17.4 mph28.0 kmh 30.24 in1024.0 mb 0.00 in0.0 mm 0.00 in0.0 mm 0.00 in0.0 mm
02:35 AM 48.4°F9.1°C 10.3°F-12.1°C 21% 9.8 mph NNE15.8 kmh NNE 16.6 mph26.7 kmh 30.24 in1024.0 mb 0.00 in0.0 mm 0.00 in0.0 mm 0.00 in0.0 mm
02:30 AM 48.4°F9.1°C 10.3°F-12.1°C 21% 6.3 mph NE10.1 kmh NE 10.7 mph17.2 kmh 30.24 in1024.0 mb 0.00 in0.0 mm 0.00 in0.0 mm 0.00 in0.0 mm
02:25 AM 48.4°F9.1°C 10.3°F-12.1°C 21% 6.3 mph N10.1 kmh N 14.3 mph23.0 kmh 30.21 in1023.0 mb 0.00 in0.0 mm 0.00 in0.0 mm 0.00 in0.0 mm
02:20 AM 48.4°F9.1°C 10.3°F-12.1°C 21% 5.4 mph E8.7 kmh E 14.3 mph23.0 kmh 30.21 in1023.0 mb 0.00 in0.0 mm 0.00 in0.0 mm 0.00 in0.0 mm
02:15 AM 48.6°F9.2°C 10.4°F-12.0°C 21% 5.4 mph NNE8.7 kmh NNE 11.6 mph18.7 kmh 30.21 in1023.0 mb 0.00 in0.0 mm 0.00 in0.0 mm 0.00 in0.0 mm
02:10 AM 48.6°F9.2°C 10.4°F-12.0°C 21% 5.4 mph NNE8.7 kmh NNE 11.6 mph18.7 kmh 30.24 in1024.0 mb 0.00 in0.0 mm 0.00 in0.0 mm 0.00 in0.0 mm
02:04 AM 48.7°F9.3°C 10.6°F-11.9°C 21% 8.1 mph ENE13.0 kmh ENE 11.6 mph18.7 kmh 30.24 in1024.0 mb 0.00 in0.0 mm 0.00 in0.0 mm 0.00 in0.0 mm
01:55 AM 48.7°F9.3°C 8.3°F-13.2°C 19% 8.1 mph E13.0 kmh E 12.5 mph20.1 kmh 30.24 in1024.0 mb 0.00 in0.0 mm 0.00 in0.0 mm 0.00 in0.0 mm
01:50 AM 48.7°F9.3°C 10.6°F-11.9°C 21% 5.4 mph NNE8.7 kmh NNE 12.5 mph20.1 kmh 30.24 in1024.0 mb 0.00 in0.0 mm 0.00 in0.0 mm 0.00 in0.0 mm
01:45 AM 48.7°F9.3°C 10.6°F-11.9°C 21% 6.3 mph NE10.1 kmh NE 12.5 mph20.1 kmh 30.24 in1024.0 mb 0.00 in0.0 mm 0.00 in0.0 mm 0.00 in0.0 mm
01:40 AM 48.7°F9.3°C 10.6°F-11.9°C 21% 9.8 mph NNE15.8 kmh NNE 15.2 mph24.5 kmh 30.24 in1024.0 mb 0.00 in0.0 mm 0.00 in0.0 mm 0.00 in0.0 mm
01:35 AM 48.7°F9.3°C 8.3°F-13.2°C 19% 6.3 mph ENE10.1 kmh ENE 16.6 mph26.7 kmh 30.24 in1024.0 mb 0.00 in0.0 mm 0.00 in0.0 mm 0.00 in0.0 mm
01:30 AM 48.7°F9.3°C 10.6°F-11.9°C 21% 4.5 mph E7.2 kmh E 16.6 mph26.7 kmh 30.24 in1024.0 mb 0.00 in0.0 mm 0.00 in0.0 mm 0.00 in0.0 mm
01:25 AM 48.7°F9.3°C 10.6°F-11.9°C 21% 5.4 mph E8.7 kmh E 15.2 mph24.5 kmh 30.24 in1024.0 mb 0.00 in0.0 mm 0.00 in0.0 mm 0.00 in0.0 mm
01:20 AM 48.7°F9.3°C 10.6°F-11.9°C 21% 7.2 mph N11.6 kmh N 15.2 mph24.5 kmh 30.24 in1024.0 mb 0.00 in0.0 mm 0.00 in0.0 mm 0.00 in0.0 mm
01:15 AM 49.1°F9.5°C 10.9°F-11.7°C 21% 6.3 mph NNE10.1 kmh NNE 15.2 mph24.5 kmh 30.24 in1024.0 mb 0.00 in0.0 mm 0.00 in0.0 mm 0.00 in0.0 mm
01:10 AM 49.3°F9.6°C 11.0°F-11.7°C 21% 10.7 mph N17.2 kmh N 12.5 mph20.1 kmh 30.24 in1024.0 mb 0.00 in0.0 mm 0.00 in0.0 mm 0.00 in0.0 mm
01:05 AM 49.3°F9.6°C 11.0°F-11.7°C 21% 11.6 mph N18.7 kmh N 17.4 mph28.0 kmh 30.24 in1024.0 mb 0.00 in0.0 mm 0.00 in0.0 mm 0.00 in0.0 mm
01:01 AM 49.5°F9.7°C 11.2°F-11.6°C 21% 12.5 mph N20.1 kmh N 17.4 mph28.0 kmh 30.24 in1024.0 mb 0.00 in0.0 mm 0.00 in0.0 mm 0.00 in0.0 mm
12:55 AM 49.6°F9.8°C 11.3°F-11.5°C 21% 7.2 mph N11.6 kmh N 12.5 mph20.1 kmh 30.21 in1023.0 mb 0.00 in0.0 mm 0.00 in0.0 mm 0.00 in0.0 mm
12:50 AM 49.6°F9.8°C 11.3°F-11.5°C 21% 10.7 mph NNE17.2 kmh NNE 12.5 mph20.1 kmh 30.21 in1023.0 mb 0.00 in0.0 mm 0.00 in0.0 mm 0.00 in0.0 mm
12:45 AM 50.0°F10.0°C 11.6°F-11.3°C 21% 7.2 mph N11.6 kmh N 12.5 mph20.1 kmh 30.21 in1023.0 mb 0.00 in0.0 mm 0.00 in0.0 mm 0.00 in0.0 mm
12:40 AM 50.0°F10.0°C 11.6°F-11.3°C 21% 6.3 mph NE10.1 kmh NE 12.5 mph20.1 kmh 30.24 in1024.0 mb 0.00 in0.0 mm 0.00 in0.0 mm 0.00 in0.0 mm
12:35 AM 50.0°F10.0°C 9.4°F-12.6°C 19% 11.6 mph NNE18.7 kmh NNE 12.5 mph20.1 kmh 30.24 in1024.0 mb 0.00 in0.0 mm 0.00 in0.0 mm 0.00 in0.0 mm
12:30 AM 49.8°F9.9°C 11.5°F-11.4°C 21% 6.3 mph NNE10.1 kmh NNE 11.6 mph18.7 kmh 30.24 in1024.0 mb 0.00 in0.0 mm 0.00 in0.0 mm 0.00 in0.0 mm
12:25 AM 49.6°F9.8°C 11.3°F-11.5°C 21% 9.8 mph NNE15.8 kmh NNE 11.6 mph18.7 kmh 30.24 in1024.0 mb 0.00 in0.0 mm 0.00 in0.0 mm 0.00 in0.0 mm
12:20 AM 49.6°F9.8°C 9.1°F-12.7°C 19% 8.9 mph NE14.3 kmh NE 9.8 mph15.8 kmh 30.24 in1024.0 mb 0.00 in0.0 mm 0.00 in0.0 mm 0.00 in0.0 mm
12:15 AM 49.6°F9.8°C 9.1°F-12.7°C 19% 7.2 mph E11.6 kmh E 9.8 mph15.8 kmh 30.24 in1024.0 mb 0.00 in0.0 mm 0.00 in0.0 mm 0.00 in0.0 mm
12:10 AM 49.6°F9.8°C 9.1°F-12.7°C 19% 7.2 mph NNE11.6 kmh NNE 10.7 mph17.2 kmh 30.21 in1023.0 mb 0.00 in0.0 mm 0.00 in0.0 mm 0.00 in0.0 mm
12:05 AM 49.6°F9.8°C 11.3°F-11.5°C 21% 8.1 mph NNE13.0 kmh NNE 11.6 mph18.7 kmh 30.21 in1023.0 mb 0.00 in0.0 mm 0.00 in0.0 mm 0.00 in0.0 mm